sensor_id;sensor_type;location;lat;lon;timestamp;P1;durP1;ratioP1;P2;durP2;ratioP2
8353;SDS011;4656;48.090;11.498;2023-03-23T00:01:57;5.25;;;2.20;;
8353;SDS011;4656;48.090;11.498;2023-03-23T00:03:59;3.90;;;2.20;;
8353;SDS011;4656;48.090;11.498;2023-03-23T00:06:01;4.15;;;2.53;;
8353;SDS011;4656;48.090;11.498;2023-03-23T00:08:06;2.92;;;2.10;;
8353;SDS011;4656;48.090;11.498;2023-03-23T00:10:10;2.92;;;2.33;;
8353;SDS011;4656;48.090;11.498;2023-03-23T00:12:12;4.50;;;2.40;;
8353;SDS011;4656;48.090;11.498;2023-03-23T00:14:15;2.30;;;2.10;;
8353;SDS011;4656;48.090;11.498;2023-03-23T00:16:23;4.82;;;2.40;;
8353;SDS011;4656;48.090;11.498;2023-03-23T00:18:30;2.38;;;2.10;;
8353;SDS011;4656;48.090;11.498;2023-03-23T00:20:35;2.35;;;2.15;;
8353;SDS011;4656;48.090;11.498;2023-03-23T00:22:39;3.00;;;2.10;;
8353;SDS011;4656;48.090;11.498;2023-03-23T00:24:43;3.55;;;2.17;;
8353;SDS011;4656;48.090;11.498;2023-03-23T00:26:47;3.58;;;2.30;;
8353;SDS011;4656;48.090;11.498;2023-03-23T00:28:51;4.15;;;2.00;;
8353;SDS011;4656;48.090;11.498;2023-03-23T00:30:54;3.97;;;2.38;;
8353;SDS011;4656;48.090;11.498;2023-03-23T00:32:56;3.42;;;2.30;;
8353;SDS011;4656;48.090;11.498;2023-03-23T00:34:58;2.80;;;2.00;;
8353;SDS011;4656;48.090;11.498;2023-03-23T00:37:00;2.55;;;2.25;;
8353;SDS011;4656;48.090;11.498;2023-03-23T00:39:03;2.80;;;2.10;;
8353;SDS011;4656;48.090;11.498;2023-03-23T00:41:05;3.42;;;2.25;;
8353;SDS011;4656;48.090;11.498;2023-03-23T00:43:09;3.58;;;2.10;;
8353;SDS011;4656;48.090;11.498;2023-03-23T00:45:14;2.67;;;2.10;;
8353;SDS011;4656;48.090;11.498;2023-03-23T00:47:16;2.72;;;2.28;;
8353;SDS011;4656;48.090;11.498;2023-03-23T00:49:19;3.63;;;2.10;;
8353;SDS011;4656;48.090;11.498;2023-03-23T00:51:24;2.70;;;2.17;;
8353;SDS011;4656;48.090;11.498;2023-03-23T00:53:26;2.80;;;2.00;;
8353;SDS011;4656;48.090;11.498;2023-03-23T00:55:28;2.33;;;2.10;;
8353;SDS011;4656;48.090;11.498;2023-03-23T00:57:31;2.33;;;1.98;;
8353;SDS011;4656;48.090;11.498;2023-03-23T00:59:34;2.78;;;2.03;;
8353;SDS011;4656;48.090;11.498;2023-03-23T01:01:36;2.80;;;2.05;;
8353;SDS011;4656;48.090;11.498;2023-03-23T01:03:39;3.50;;;2.10;;
8353;SDS011;4656;48.090;11.498;2023-03-23T01:05:41;2.25;;;2.03;;
8353;SDS011;4656;48.090;11.498;2023-03-23T01:07:43;2.00;;;1.80;;
8353;SDS011;4656;48.090;11.498;2023-03-23T01:09:45;2.50;;;2.30;;
8353;SDS011;4656;48.090;11.498;2023-03-23T01:11:49;4.65;;;2.25;;
8353;SDS011;4656;48.090;11.498;2023-03-23T01:13:51;3.00;;;2.15;;
8353;SDS011;4656;48.090;11.498;2023-03-23T01:15:54;2.80;;;2.05;;
8353;SDS011;4656;48.090;11.498;2023-03-23T01:17:57;2.58;;;2.00;;
8353;SDS011;4656;48.090;11.498;2023-03-23T01:19:59;2.40;;;1.98;;
8353;SDS011;4656;48.090;11.498;2023-03-23T01:22:04;4.32;;;2.10;;
8353;SDS011;4656;48.090;11.498;2023-03-23T01:24:06;3.42;;;1.90;;
8353;SDS011;4656;48.090;11.498;2023-03-23T01:26:09;2.40;;;1.85;;
8353;SDS011;4656;48.090;11.498;2023-03-23T01:28:12;2.70;;;2.20;;
8353;SDS011;4656;48.090;11.498;2023-03-23T01:30:14;3.67;;;1.98;;
8353;SDS011;4656;48.090;11.498;2023-03-23T01:32:18;3.10;;;2.00;;
8353;SDS011;4656;48.090;11.498;2023-03-23T01:34:20;2.58;;;1.95;;
8353;SDS011;4656;48.090;11.498;2023-03-23T01:36:24;3.38;;;2.03;;
8353;SDS011;4656;48.090;11.498;2023-03-23T01:38:28;2.08;;;1.88;;
8353;SDS011;4656;48.090;11.498;2023-03-23T01:40:31;2.65;;;2.15;;
8353;SDS011;4656;48.090;11.498;2023-03-23T01:42:33;4.20;;;1.95;;
8353;SDS011;4656;48.090;11.498;2023-03-23T01:46:56;5.40;;;2.30;;
8353;SDS011;4656;48.090;11.498;2023-03-23T01:49:01;2.78;;;1.90;;
8353;SDS011;4656;48.090;11.498;2023-03-23T01:51:06;2.95;;;2.25;;
8353;SDS011;4656;48.090;11.498;2023-03-23T01:53:09;3.67;;;2.00;;
8353;SDS011;4656;48.090;11.498;2023-03-23T01:55:12;2.28;;;2.08;;
8353;SDS011;4656;48.090;11.498;2023-03-23T01:57:16;2.42;;;1.98;;
8353;SDS011;4656;48.090;11.498;2023-03-23T01:59:19;5.00;;;2.08;;
8353;SDS011;4656;48.090;11.498;2023-03-23T02:01:21;3.60;;;2.13;;
8353;SDS011;4656;48.090;11.498;2023-03-23T02:03:24;4.32;;;2.00;;
8353;SDS011;4656;48.090;11.498;2023-03-23T02:05:29;2.85;;;2.10;;
8353;SDS011;4656;48.090;11.498;2023-03-23T02:07:33;3.58;;;2.00;;
8353;SDS011;4656;48.090;11.498;2023-03-23T02:09:36;2.77;;;2.03;;
8353;SDS011;4656;48.090;11.498;2023-03-23T02:11:38;2.80;;;1.92;;
8353;SDS011;4656;48.090;11.498;2023-03-23T02:13:40;2.83;;;2.00;;
8353;SDS011;4656;48.090;11.498;2023-03-23T02:15:45;2.28;;;2.08;;
8353;SDS011;4656;48.090;11.498;2023-03-23T02:17:51;2.38;;;2.17;;
8353;SDS011;4656;48.090;11.498;2023-03-23T02:19:59;2.00;;;1.90;;
8353;SDS011;4656;48.090;11.498;2023-03-23T02:22:19;2.72;;;1.92;;
8353;SDS011;4656;48.090;11.498;2023-03-23T02:26:56;3.30;;;2.13;;
8353;SDS011;4656;48.090;11.498;2023-03-23T02:29:16;2.87;;;2.00;;
8353;SDS011;4656;48.090;11.498;2023-03-23T02:31:22;2.80;;;2.30;;
8353;SDS011;4656;48.090;11.498;2023-03-23T02:33:33;4.05;;;2.30;;
8353;SDS011;4656;48.090;11.498;2023-03-23T02:35:37;2.83;;;2.30;;
8353;SDS011;4656;48.090;11.498;2023-03-23T02:37:43;2.30;;;2.10;;
8353;SDS011;4656;48.090;11.498;2023-03-23T02:39:47;2.58;;;1.95;;
8353;SDS011;4656;48.090;11.498;2023-03-23T02:41:51;3.47;;;2.15;;
8353;SDS011;4656;48.090;11.498;2023-03-23T02:43:55;2.50;;;1.90;;
8353;SDS011;4656;48.090;11.498;2023-03-23T02:45:58;2.70;;;2.00;;
8353;SDS011;4656;48.090;11.498;2023-03-23T02:48:00;2.40;;;2.00;;
8353;SDS011;4656;48.090;11.498;2023-03-23T02:50:07;2.05;;;1.80;;
8353;SDS011;4656;48.090;11.498;2023-03-23T02:52:11;3.55;;;1.92;;
8353;SDS011;4656;48.090;11.498;2023-03-23T02:54:15;4.40;;;2.22;;
8353;SDS011;4656;48.090;11.498;2023-03-23T02:56:20;3.08;;;1.98;;
8353;SDS011;4656;48.090;11.498;2023-03-23T02:58:24;3.90;;;2.00;;
8353;SDS011;4656;48.090;11.498;2023-03-23T03:00:26;3.47;;;2.10;;
8353;SDS011;4656;48.090;11.498;2023-03-23T03:02:29;2.05;;;1.90;;
8353;SDS011;4656;48.090;11.498;2023-03-23T03:04:32;2.08;;;1.90;;
8353;SDS011;4656;48.090;11.498;2023-03-23T03:06:38;2.40;;;1.90;;
8353;SDS011;4656;48.090;11.498;2023-03-23T03:08:45;2.28;;;1.90;;
8353;SDS011;4656;48.090;11.498;2023-03-23T03:10:49;2.20;;;1.92;;
8353;SDS011;4656;48.090;11.498;2023-03-23T03:12:54;2.60;;;1.90;;
8353;SDS011;4656;48.090;11.498;2023-03-23T03:14:58;2.28;;;1.80;;
8353;SDS011;4656;48.090;11.498;2023-03-23T03:17:06;2.10;;;1.90;;
8353;SDS011;4656;48.090;11.498;2023-03-23T03:19:12;3.58;;;1.90;;
8353;SDS011;4656;48.090;11.498;2023-03-23T03:21:15;2.15;;;1.92;;
8353;SDS011;4656;48.090;11.498;2023-03-23T03:23:22;2.05;;;1.85;;
8353;SDS011;4656;48.090;11.498;2023-03-23T03:25:25;3.70;;;1.80;;
8353;SDS011;4656;48.090;11.498;2023-03-23T03:27:28;3.10;;;1.93;;
8353;SDS011;4656;48.090;11.498;2023-03-23T03:29:32;3.63;;;2.05;;
8353;SDS011;4656;48.090;11.498;2023-03-23T03:31:36;3.13;;;2.15;;
8353;SDS011;4656;48.090;11.498;2023-03-23T03:33:39;3.78;;;2.15;;
8353;SDS011;4656;48.090;11.498;2023-03-23T03:35:42;3.40;;;2.20;;
8353;SDS011;4656;48.090;11.498;2023-03-23T03:37:44;3.17;;;1.92;;
8353;SDS011;4656;48.090;11.498;2023-03-23T03:39:48;2.45;;;1.88;;
8353;SDS011;4656;48.090;11.498;2023-03-23T03:41:51;2.20;;;2.00;;
8353;SDS011;4656;48.090;11.498;2023-03-23T03:43:54;2.78;;;1.88;;
8353;SDS011;4656;48.090;11.498;2023-03-23T03:45:56;2.13;;;1.92;;
8353;SDS011;4656;48.090;11.498;2023-03-23T03:47:58;2.05;;;1.70;;
8353;SDS011;4656;48.090;11.498;2023-03-23T03:50:00;2.80;;;1.70;;
8353;SDS011;4656;48.090;11.498;2023-03-23T03:52:05;2.80;;;2.05;;
8353;SDS011;4656;48.090;11.498;2023-03-23T03:54:07;2.85;;;2.10;;
8353;SDS011;4656;48.090;11.498;2023-03-23T03:56:11;2.03;;;1.80;;
8353;SDS011;4656;48.090;11.498;2023-03-23T03:58:14;2.22;;;1.88;;
8353;SDS011;4656;48.090;11.498;2023-03-23T04:00:16;2.28;;;1.92;;
8353;SDS011;4656;48.090;11.498;2023-03-23T04:02:19;3.55;;;2.00;;
8353;SDS011;4656;48.090;11.498;2023-03-23T04:04:21;2.00;;;1.80;;
8353;SDS011;4656;48.090;11.498;2023-03-23T04:06:23;3.28;;;1.90;;
8353;SDS011;4656;48.090;11.498;2023-03-23T04:08:27;3.38;;;2.10;;
8353;SDS011;4656;48.090;11.498;2023-03-23T04:10:30;2.00;;;1.70;;
8353;SDS011;4656;48.090;11.498;2023-03-23T04:12:34;2.05;;;1.80;;
8353;SDS011;4656;48.090;11.498;2023-03-23T04:14:37;2.70;;;1.90;;
8353;SDS011;4656;48.090;11.498;2023-03-23T04:16:39;2.33;;;1.80;;
8353;SDS011;4656;48.090;11.498;2023-03-23T04:18:41;2.50;;;1.95;;
8353;SDS011;4656;48.090;11.498;2023-03-23T04:20:48;2.00;;;1.85;;
8353;SDS011;4656;48.090;11.498;2023-03-23T04:22:50;3.38;;;1.80;;
8353;SDS011;4656;48.090;11.498;2023-03-23T04:24:55;2.05;;;1.80;;
8353;SDS011;4656;48.090;11.498;2023-03-23T04:26:59;2.30;;;1.98;;
8353;SDS011;4656;48.090;11.498;2023-03-23T04:29:03;3.28;;;1.90;;
8353;SDS011;4656;48.090;11.498;2023-03-23T04:31:05;4.10;;;1.95;;
8353;SDS011;4656;48.090;11.498;2023-03-23T04:33:09;2.47;;;1.88;;
8353;SDS011;4656;48.090;11.498;2023-03-23T04:35:14;2.55;;;2.10;;
8353;SDS011;4656;48.090;11.498;2023-03-23T04:37:16;2.85;;;1.88;;
8353;SDS011;4656;48.090;11.498;2023-03-23T04:39:18;3.78;;;2.05;;
8353;SDS011;4656;48.090;11.498;2023-03-23T04:41:21;2.75;;;1.80;;
8353;SDS011;4656;48.090;11.498;2023-03-23T04:43:24;2.20;;;2.00;;
8353;SDS011;4656;48.090;11.498;2023-03-23T04:45:28;2.58;;;1.95;;
8353;SDS011;4656;48.090;11.498;2023-03-23T04:47:31;3.03;;;1.90;;
8353;SDS011;4656;48.090;11.498;2023-03-23T04:49:34;2.47;;;1.70;;
8353;SDS011;4656;48.090;11.498;2023-03-23T04:51:37;3.08;;;1.90;;
8353;SDS011;4656;48.090;11.498;2023-03-23T04:53:40;2.70;;;1.90;;
8353;SDS011;4656;48.090;11.498;2023-03-23T04:55:42;2.20;;;1.90;;
8353;SDS011;4656;48.090;11.498;2023-03-23T04:57:44;1.98;;;1.75;;
8353;SDS011;4656;48.090;11.498;2023-03-23T04:59:46;3.92;;;1.80;;
8353;SDS011;4656;48.090;11.498;2023-03-23T05:01:50;2.58;;;1.80;;
8353;SDS011;4656;48.090;11.498;2023-03-23T05:03:52;2.35;;;1.90;;
8353;SDS011;4656;48.090;11.498;2023-03-23T05:05:54;3.27;;;2.00;;
8353;SDS011;4656;48.090;11.498;2023-03-23T05:07:56;2.80;;;1.83;;
8353;SDS011;4656;48.090;11.498;2023-03-23T05:09:58;1.80;;;1.70;;
8353;SDS011;4656;48.090;11.498;2023-03-23T05:12:03;2.05;;;1.88;;
8353;SDS011;4656;48.090;11.498;2023-03-23T05:14:05;1.92;;;1.73;;
8353;SDS011;4656;48.090;11.498;2023-03-23T05:16:08;2.85;;;1.90;;
8353;SDS011;4656;48.090;11.498;2023-03-23T05:18:11;2.10;;;1.90;;
8353;SDS011;4656;48.090;11.498;2023-03-23T05:20:15;2.70;;;1.80;;
8353;SDS011;4656;48.090;11.498;2023-03-23T05:22:20;3.60;;;1.80;;
8353;SDS011;4656;48.090;11.498;2023-03-23T05:24:22;2.92;;;2.00;;
8353;SDS011;4656;48.090;11.498;2023-03-23T05:26:24;2.63;;;1.87;;
8353;SDS011;4656;48.090;11.498;2023-03-23T05:28:30;2.35;;;1.75;;
8353;SDS011;4656;48.090;11.498;2023-03-23T05:30:33;2.40;;;1.90;;
8353;SDS011;4656;48.090;11.498;2023-03-23T05:32:36;3.83;;;1.90;;
8353;SDS011;4656;48.090;11.498;2023-03-23T05:34:39;3.40;;;1.90;;
8353;SDS011;4656;48.090;11.498;2023-03-23T05:36:42;3.97;;;2.00;;
8353;SDS011;4656;48.090;11.498;2023-03-23T05:38:44;2.50;;;1.90;;
8353;SDS011;4656;48.090;11.498;2023-03-23T05:40:47;3.53;;;2.17;;
8353;SDS011;4656;48.090;11.498;2023-03-23T05:42:52;4.15;;;2.40;;
8353;SDS011;4656;48.090;11.498;2023-03-23T05:44:55;3.58;;;2.20;;
8353;SDS011;4656;48.090;11.498;2023-03-23T05:46:58;2.80;;;2.17;;
8353;SDS011;4656;48.090;11.498;2023-03-23T05:49:00;2.72;;;2.28;;
8353;SDS011;4656;48.090;11.498;2023-03-23T05:51:04;3.67;;;1.88;;
8353;SDS011;4656;48.090;11.498;2023-03-23T05:53:06;1.90;;;1.80;;
8353;SDS011;4656;48.090;11.498;2023-03-23T05:55:08;2.03;;;1.80;;
8353;SDS011;4656;48.090;11.498;2023-03-23T05:57:11;2.75;;;1.77;;
8353;SDS011;4656;48.090;11.498;2023-03-23T05:59:13;2.08;;;1.77;;
8353;SDS011;4656;48.090;11.498;2023-03-23T06:01:15;2.00;;;1.80;;
8353;SDS011;4656;48.090;11.498;2023-03-23T06:03:17;2.30;;;1.80;;
8353;SDS011;4656;48.090;11.498;2023-03-23T06:05:21;3.05;;;1.80;;
8353;SDS011;4656;48.090;11.498;2023-03-23T06:07:25;2.10;;;1.90;;
8353;SDS011;4656;48.090;11.498;2023-03-23T06:09:27;3.10;;;2.00;;
8353;SDS011;4656;48.090;11.498;2023-03-23T06:11:29;3.57;;;2.40;;
8353;SDS011;4656;48.090;11.498;2023-03-23T06:13:31;10.35;;;2.70;;
8353;SDS011;4656;48.090;11.498;2023-03-23T06:15:33;3.85;;;2.00;;
8353;SDS011;4656;48.090;11.498;2023-03-23T06:17:35;3.83;;;2.05;;
8353;SDS011;4656;48.090;11.498;2023-03-23T06:19:38;3.55;;;2.20;;
8353;SDS011;4656;48.090;11.498;2023-03-23T06:21:40;3.47;;;2.00;;
8353;SDS011;4656;48.090;11.498;2023-03-23T06:23:44;3.22;;;2.20;;
8353;SDS011;4656;48.090;11.498;2023-03-23T06:25:46;2.88;;;1.90;;
8353;SDS011;4656;48.090;11.498;2023-03-23T06:27:49;3.55;;;2.00;;
8353;SDS011;4656;48.090;11.498;2023-03-23T06:29:52;3.45;;;2.20;;
8353;SDS011;4656;48.090;11.498;2023-03-23T06:31:54;3.13;;;2.17;;
8353;SDS011;4656;48.090;11.498;2023-03-23T06:33:57;3.95;;;2.20;;
8353;SDS011;4656;48.090;11.498;2023-03-23T06:35:59;3.72;;;2.28;;
8353;SDS011;4656;48.090;11.498;2023-03-23T06:38:02;3.28;;;1.80;;
8353;SDS011;4656;48.090;11.498;2023-03-23T06:40:06;2.40;;;2.20;;
8353;SDS011;4656;48.090;11.498;2023-03-23T06:42:10;2.80;;;2.00;;
8353;SDS011;4656;48.090;11.498;2023-03-23T06:44:13;2.58;;;2.00;;
8353;SDS011;4656;48.090;11.498;2023-03-23T06:46:15;3.15;;;1.98;;
8353;SDS011;4656;48.090;11.498;2023-03-23T06:48:17;3.17;;;1.85;;
8353;SDS011;4656;48.090;11.498;2023-03-23T06:50:22;8.87;;;2.33;;
8353;SDS011;4656;48.090;11.498;2023-03-23T06:52:25;5.28;;;2.10;;
8353;SDS011;4656;48.090;11.498;2023-03-23T06:54:27;5.00;;;2.40;;
8353;SDS011;4656;48.090;11.498;2023-03-23T06:56:31;3.03;;;2.10;;
8353;SDS011;4656;48.090;11.498;2023-03-23T06:58:34;2.45;;;2.20;;
8353;SDS011;4656;48.090;11.498;2023-03-23T07:00:36;7.73;;;2.20;;
8353;SDS011;4656;48.090;11.498;2023-03-23T07:02:38;18.10;;;2.90;;
8353;SDS011;4656;48.090;11.498;2023-03-23T07:04:41;16.05;;;3.60;;
8353;SDS011;4656;48.090;11.498;2023-03-23T07:06:43;10.05;;;2.65;;
8353;SDS011;4656;48.090;11.498;2023-03-23T07:08:45;8.45;;;3.42;;
8353;SDS011;4656;48.090;11.498;2023-03-23T07:10:47;6.35;;;2.05;;
8353;SDS011;4656;48.090;11.498;2023-03-23T07:12:56;3.80;;;1.90;;
8353;SDS011;4656;48.090;11.498;2023-03-23T07:14:59;2.37;;;2.00;;
8353;SDS011;4656;48.090;11.498;2023-03-23T07:17:02;2.70;;;1.90;;
8353;SDS011;4656;48.090;11.498;2023-03-23T07:19:04;2.15;;;1.80;;
8353;SDS011;4656;48.090;11.498;2023-03-23T07:21:06;4.18;;;1.95;;
8353;SDS011;4656;48.090;11.498;2023-03-23T07:23:08;3.92;;;2.25;;
8353;SDS011;4656;48.090;11.498;2023-03-23T07:25:11;2.13;;;1.92;;
8353;SDS011;4656;48.090;11.498;2023-03-23T07:27:13;3.72;;;1.92;;
8353;SDS011;4656;48.090;11.498;2023-03-23T07:29:16;3.20;;;1.83;;
8353;SDS011;4656;48.090;11.498;2023-03-23T07:31:18;2.53;;;2.00;;
8353;SDS011;4656;48.090;11.498;2023-03-23T07:33:21;2.60;;;1.80;;
8353;SDS011;4656;48.090;11.498;2023-03-23T07:35:23;2.60;;;1.80;;
8353;SDS011;4656;48.090;11.498;2023-03-23T07:37:26;4.10;;;1.70;;
8353;SDS011;4656;48.090;11.498;2023-03-23T07:39:28;3.63;;;1.75;;
8353;SDS011;4656;48.090;11.498;2023-03-23T07:41:30;2.70;;;1.90;;
8353;SDS011;4656;48.090;11.498;2023-03-23T07:43:33;2.78;;;1.65;;
8353;SDS011;4656;48.090;11.498;2023-03-23T07:45:36;2.80;;;1.75;;
8353;SDS011;4656;48.090;11.498;2023-03-23T07:47:39;4.50;;;1.67;;
8353;SDS011;4656;48.090;11.498;2023-03-23T07:49:41;2.83;;;1.63;;
8353;SDS011;4656;48.090;11.498;2023-03-23T07:51:44;3.58;;;1.80;;
8353;SDS011;4656;48.090;11.498;2023-03-23T07:53:46;3.95;;;1.77;;
8353;SDS011;4656;48.090;11.498;2023-03-23T07:55:48;2.97;;;1.73;;
8353;SDS011;4656;48.090;11.498;2023-03-23T07:57:50;2.15;;;1.95;;
8353;SDS011;4656;48.090;11.498;2023-03-23T07:59:53;3.30;;;1.80;;
8353;SDS011;4656;48.090;11.498;2023-03-23T08:01:56;2.40;;;1.73;;
8353;SDS011;4656;48.090;11.498;2023-03-23T08:03:59;2.30;;;1.80;;
8353;SDS011;4656;48.090;11.498;2023-03-23T08:06:01;2.92;;;1.90;;
8353;SDS011;4656;48.090;11.498;2023-03-23T08:08:04;2.00;;;1.80;;
8353;SDS011;4656;48.090;11.498;2023-03-23T08:10:07;3.60;;;1.80;;
8353;SDS011;4656;48.090;11.498;2023-03-23T08:12:11;2.83;;;2.10;;
8353;SDS011;4656;48.090;11.498;2023-03-23T08:14:14;2.90;;;1.85;;
8353;SDS011;4656;48.090;11.498;2023-03-23T08:16:16;4.18;;;1.92;;
8353;SDS011;4656;48.090;11.498;2023-03-23T08:18:20;4.25;;;2.00;;
8353;SDS011;4656;48.090;11.498;2023-03-23T08:20:22;1.95;;;1.70;;
8353;SDS011;4656;48.090;11.498;2023-03-23T08:22:25;2.20;;;1.70;;
8353;SDS011;4656;48.090;11.498;2023-03-23T08:24:29;4.10;;;2.35;;
8353;SDS011;4656;48.090;11.498;2023-03-23T08:26:31;2.10;;;1.90;;
8353;SDS011;4656;48.090;11.498;2023-03-23T08:28:33;3.55;;;2.00;;
8353;SDS011;4656;48.090;11.498;2023-03-23T08:30:37;2.78;;;2.30;;
8353;SDS011;4656;48.090;11.498;2023-03-23T08:32:40;4.22;;;2.10;;
8353;SDS011;4656;48.090;11.498;2023-03-23T08:34:43;4.40;;;1.92;;
8353;SDS011;4656;48.090;11.498;2023-03-23T08:36:46;1.80;;;1.70;;
8353;SDS011;4656;48.090;11.498;2023-03-23T08:38:48;2.97;;;1.90;;
8353;SDS011;4656;48.090;11.498;2023-03-23T08:40:51;2.08;;;1.85;;
8353;SDS011;4656;48.090;11.498;2023-03-23T08:42:54;4.53;;;1.80;;
8353;SDS011;4656;48.090;11.498;2023-03-23T08:44:57;1.65;;;1.55;;
8353;SDS011;4656;48.090;11.498;2023-03-23T08:46:59;1.60;;;1.50;;
8353;SDS011;4656;48.090;11.498;2023-03-23T08:49:03;2.70;;;2.10;;
8353;SDS011;4656;48.090;11.498;2023-03-23T08:51:07;3.90;;;1.90;;
8353;SDS011;4656;48.090;11.498;2023-03-23T08:53:09;2.80;;;1.80;;
8353;SDS011;4656;48.090;11.498;2023-03-23T08:55:11;3.55;;;1.98;;
8353;SDS011;4656;48.090;11.498;2023-03-23T08:57:15;3.60;;;1.63;;
8353;SDS011;4656;48.090;11.498;2023-03-23T08:59:18;2.85;;;1.80;;
8353;SDS011;4656;48.090;11.498;2023-03-23T09:01:20;2.22;;;1.90;;
8353;SDS011;4656;48.090;11.498;2023-03-23T09:03:23;1.95;;;1.33;;
8353;SDS011;4656;48.090;11.498;2023-03-23T09:05:26;2.00;;;1.60;;
8353;SDS011;4656;48.090;11.498;2023-03-23T09:07:29;3.22;;;1.77;;
8353;SDS011;4656;48.090;11.498;2023-03-23T09:09:32;3.00;;;1.80;;
8353;SDS011;4656;48.090;11.498;2023-03-23T09:11:35;2.25;;;1.77;;
8353;SDS011;4656;48.090;11.498;2023-03-23T09:13:38;2.80;;;1.80;;
8353;SDS011;4656;48.090;11.498;2023-03-23T09:15:40;2.90;;;1.90;;
8353;SDS011;4656;48.090;11.498;2023-03-23T09:17:44;1.70;;;1.50;;
8353;SDS011;4656;48.090;11.498;2023-03-23T09:19:46;1.83;;;1.73;;
8353;SDS011;4656;48.090;11.498;2023-03-23T09:21:48;1.63;;;1.50;;
8353;SDS011;4656;48.090;11.498;2023-03-23T09:23:52;2.17;;;1.58;;
8353;SDS011;4656;48.090;11.498;2023-03-23T09:25:59;2.38;;;1.80;;
8353;SDS011;4656;48.090;11.498;2023-03-23T09:28:02;3.33;;;1.63;;
8353;SDS011;4656;48.090;11.498;2023-03-23T09:30:05;1.90;;;1.65;;
8353;SDS011;4656;48.090;11.498;2023-03-23T09:32:07;2.20;;;1.70;;
8353;SDS011;4656;48.090;11.498;2023-03-23T09:34:09;2.90;;;1.60;;
8353;SDS011;4656;48.090;11.498;2023-03-23T09:36:12;3.92;;;1.75;;
8353;SDS011;4656;48.090;11.498;2023-03-23T09:38:17;2.60;;;1.63;;
8353;SDS011;4656;48.090;11.498;2023-03-23T09:40:21;5.22;;;1.85;;
8353;SDS011;4656;48.090;11.498;2023-03-23T09:42:29;2.83;;;2.00;;
8353;SDS011;4656;48.090;11.498;2023-03-23T09:44:36;3.17;;;1.90;;
8353;SDS011;4656;48.090;11.498;2023-03-23T09:46:44;2.50;;;2.20;;
8353;SDS011;4656;48.090;11.498;2023-03-23T09:48:49;7.10;;;2.70;;
8353;SDS011;4656;48.090;11.498;2023-03-23T09:50:54;2.95;;;2.65;;
8353;SDS011;4656;48.090;11.498;2023-03-23T09:53:00;3.75;;;2.70;;
8353;SDS011;4656;48.090;11.498;2023-03-23T09:55:04;6.55;;;3.20;;
8353;SDS011;4656;48.090;11.498;2023-03-23T09:57:11;3.80;;;2.83;;
8353;SDS011;4656;48.090;11.498;2023-03-23T09:59:16;4.90;;;3.40;;
8353;SDS011;4656;48.090;11.498;2023-03-23T10:01:21;6.00;;;3.10;;
8353;SDS011;4656;48.090;11.498;2023-03-23T10:03:25;4.18;;;3.22;;
8353;SDS011;4656;48.090;11.498;2023-03-23T10:05:31;4.13;;;3.08;;
8353;SDS011;4656;48.090;11.498;2023-03-23T10:07:34;7.18;;;3.20;;
8353;SDS011;4656;48.090;11.498;2023-03-23T10:09:36;5.40;;;3.50;;
8353;SDS011;4656;48.090;11.498;2023-03-23T10:11:42;3.80;;;3.10;;
8353;SDS011;4656;48.090;11.498;2023-03-23T10:13:54;4.80;;;3.75;;
8353;SDS011;4656;48.090;11.498;2023-03-23T10:15:57;4.20;;;3.35;;
8353;SDS011;4656;48.090;11.498;2023-03-23T10:18:00;5.38;;;3.42;;
8353;SDS011;4656;48.090;11.498;2023-03-23T10:20:10;4.05;;;3.00;;
8353;SDS011;4656;48.090;11.498;2023-03-23T10:22:18;8.27;;;3.50;;
8353;SDS011;4656;48.090;11.498;2023-03-23T10:24:26;8.00;;;3.28;;
8353;SDS011;4656;48.090;11.498;2023-03-23T10:26:33;7.38;;;3.25;;
8353;SDS011;4656;48.090;11.498;2023-03-23T10:28:39;5.97;;;3.10;;
8353;SDS011;4656;48.090;11.498;2023-03-23T10:30:43;3.75;;;3.00;;
8353;SDS011;4656;48.090;11.498;2023-03-23T10:32:48;6.95;;;3.00;;
8353;SDS011;4656;48.090;11.498;2023-03-23T10:34:52;4.32;;;2.90;;
8353;SDS011;4656;48.090;11.498;2023-03-23T10:36:59;6.50;;;3.08;;
8353;SDS011;4656;48.090;11.498;2023-03-23T10:39:05;3.92;;;2.78;;
8353;SDS011;4656;48.090;11.498;2023-03-23T10:41:10;3.92;;;2.90;;
8353;SDS011;4656;48.090;11.498;2023-03-23T10:43:13;4.63;;;2.80;;
8353;SDS011;4656;48.090;11.498;2023-03-23T10:45:17;5.50;;;2.70;;
8353;SDS011;4656;48.090;11.498;2023-03-23T10:47:20;4.30;;;2.78;;
8353;SDS011;4656;48.090;11.498;2023-03-23T10:49:23;5.32;;;2.90;;
8353;SDS011;4656;48.090;11.498;2023-03-23T10:51:27;4.05;;;2.70;;
8353;SDS011;4656;48.090;11.498;2023-03-23T10:53:31;6.65;;;4.15;;
8353;SDS011;4656;48.090;11.498;2023-03-23T10:55:37;3.63;;;2.93;;
8353;SDS011;4656;48.090;11.498;2023-03-23T10:57:40;6.00;;;2.93;;
8353;SDS011;4656;48.090;11.498;2023-03-23T10:59:43;3.10;;;2.50;;
8353;SDS011;4656;48.090;11.498;2023-03-23T11:01:49;6.38;;;2.92;;
8353;SDS011;4656;48.090;11.498;2023-03-23T11:03:55;4.75;;;2.65;;
8353;SDS011;4656;48.090;11.498;2023-03-23T11:06:00;4.32;;;2.60;;
8353;SDS011;4656;48.090;11.498;2023-03-23T11:08:03;3.22;;;2.47;;
8353;SDS011;4656;48.090;11.498;2023-03-23T11:10:16;3.30;;;2.30;;
8353;SDS011;4656;48.090;11.498;2023-03-23T11:12:19;4.88;;;2.50;;
8353;SDS011;4656;48.090;11.498;2023-03-23T11:14:24;2.72;;;2.15;;
8353;SDS011;4656;48.090;11.498;2023-03-23T11:16:28;3.03;;;2.42;;
8353;SDS011;4656;48.090;11.498;2023-03-23T11:18:34;3.33;;;2.40;;
8353;SDS011;4656;48.090;11.498;2023-03-23T11:20:39;4.20;;;2.30;;
8353;SDS011;4656;48.090;11.498;2023-03-23T11:22:42;5.75;;;2.50;;
8353;SDS011;4656;48.090;11.498;2023-03-23T11:24:46;5.27;;;2.30;;
8353;SDS011;4656;48.090;11.498;2023-03-23T11:26:49;3.55;;;2.50;;
8353;SDS011;4656;48.090;11.498;2023-03-23T11:28:53;8.55;;;2.42;;
8353;SDS011;4656;48.090;11.498;2023-03-23T11:30:57;2.92;;;2.40;;
8353;SDS011;4656;48.090;11.498;2023-03-23T11:33:00;2.72;;;2.22;;
8353;SDS011;4656;48.090;11.498;2023-03-23T11:35:04;2.95;;;2.40;;
8353;SDS011;4656;48.090;11.498;2023-03-23T11:37:10;4.93;;;2.28;;
8353;SDS011;4656;48.090;11.498;2023-03-23T11:39:19;4.90;;;2.43;;
8353;SDS011;4656;48.090;11.498;2023-03-23T11:41:22;4.10;;;2.30;;
8353;SDS011;4656;48.090;11.498;2023-03-23T11:43:24;5.70;;;2.35;;
8353;SDS011;4656;48.090;11.498;2023-03-23T11:45:31;3.28;;;2.50;;
8353;SDS011;4656;48.090;11.498;2023-03-23T11:47:36;4.43;;;2.60;;
8353;SDS011;4656;48.090;11.498;2023-03-23T11:49:45;4.40;;;2.50;;
8353;SDS011;4656;48.090;11.498;2023-03-23T11:51:50;3.50;;;2.58;;
8353;SDS011;4656;48.090;11.498;2023-03-23T11:53:55;3.13;;;2.30;;
8353;SDS011;4656;48.090;11.498;2023-03-23T11:56:02;2.88;;;2.53;;
8353;SDS011;4656;48.090;11.498;2023-03-23T11:58:09;4.00;;;2.60;;
8353;SDS011;4656;48.090;11.498;2023-03-23T12:00:14;3.92;;;2.70;;
8353;SDS011;4656;48.090;11.498;2023-03-23T12:02:26;3.42;;;2.63;;
8353;SDS011;4656;48.090;11.498;2023-03-23T12:06:58;6.30;;;2.70;;
8353;SDS011;4656;48.090;11.498;2023-03-23T12:09:07;4.15;;;2.83;;
8353;SDS011;4656;48.090;11.498;2023-03-23T12:11:17;3.40;;;2.70;;
8353;SDS011;4656;48.090;11.498;2023-03-23T12:13:24;4.88;;;2.50;;
8353;SDS011;4656;48.090;11.498;2023-03-23T12:15:31;4.65;;;2.72;;
8353;SDS011;4656;48.090;11.498;2023-03-23T12:17:40;3.22;;;2.65;;
8353;SDS011;4656;48.090;11.498;2023-03-23T12:19:45;3.88;;;2.70;;
8353;SDS011;4656;48.090;11.498;2023-03-23T12:21:51;6.13;;;2.42;;
8353;SDS011;4656;48.090;11.498;2023-03-23T12:24:05;4.13;;;2.78;;
8353;SDS011;4656;48.090;11.498;2023-03-23T12:26:14;3.33;;;2.53;;
8353;SDS011;4656;48.090;11.498;2023-03-23T12:28:19;3.05;;;2.30;;
8353;SDS011;4656;48.090;11.498;2023-03-23T12:30:26;4.38;;;2.67;;
8353;SDS011;4656;48.090;11.498;2023-03-23T12:35:03;3.72;;;2.30;;
8353;SDS011;4656;48.090;11.498;2023-03-23T12:37:20;3.17;;;2.75;;
8353;SDS011;4656;48.090;11.498;2023-03-23T12:39:42;3.22;;;2.28;;
8353;SDS011;4656;48.090;11.498;2023-03-23T12:41:51;3.83;;;2.30;;
8353;SDS011;4656;48.090;11.498;2023-03-23T12:43:57;3.70;;;1.90;;
8353;SDS011;4656;48.090;11.498;2023-03-23T12:46:13;3.80;;;2.03;;
8353;SDS011;4656;48.090;11.498;2023-03-23T12:48:17;4.13;;;2.03;;